Time;durP1;ratioP1;P1;durP2;ratioP2;P2;SDS_P1;SDS_P2;PMS_P1;PMS_P2;Temp;Humidity;BMP_temperature;BMP_pressure;BME280_temperature;BME280_humidity;BME280_pressure;Samples;Min_cycle;Max_cycle;Signal;HPM_P1;HPM_P2
2022/04/23 00:01:17;;;;;;;14.02;6.55;;;;;;;;;;5066007;28;20048;-66
2022/04/23 00:03:43;;;;;;;14.48;6.15;;;;;;;;;;5049081;28;20049;-67
2022/04/23 00:06:09;;;;;;;10.73;6.13;;;;;;;;;;5064672;28;20045;-66
2022/04/23 00:08:35;;;;;;;10.55;6.20;;;;;;;;;;5063289;28;20056;-67
2022/04/23 00:11:02;;;;;;;12.50;6.88;;;;;;;;;;5059721;28;20641;-66
2022/04/23 00:13:28;;;;;;;14.80;7.07;;;;;;;;;;5064591;28;20049;-67
2022/04/23 00:15:54;;;;;;;14.60;6.57;;;;;;;;;;5061686;28;20037;-67
2022/04/23 00:18:20;;;;;;;12.88;7.07;;;;;;;;;;5044264;28;20037;-66
2022/04/23 00:20:46;;;;;;;14.77;6.25;;;;;;;;;;5065117;28;20484;-67
2022/04/23 00:23:13;;;;;;;14.40;7.60;;;;;;;;;;5064063;28;20480;-67
2022/04/23 00:25:39;;;;;;;12.73;7.40;;;;;;;;;;5066339;28;20036;-67
2022/04/23 00:28:06;;;;;;;14.77;6.53;;;;;;;;;;5067940;28;20080;-66
2022/04/23 00:30:33;;;;;;;10.07;7.05;;;;;;;;;;5049331;28;20354;-66
2022/04/23 00:33:01;;;;;;;10.65;6.63;;;;;;;;;;5064686;28;20526;-67
2022/04/23 00:35:27;;;;;;;12.43;6.97;;;;;;;;;;5067144;28;20165;-66
2022/04/23 00:37:53;;;;;;;13.25;6.55;;;;;;;;;;5065384;28;20044;-66
2022/04/23 00:40:21;;;;;;;15.55;7.70;;;;;;;;;;5049049;28;20053;-66
2022/04/23 00:42:47;;;;;;;14.50;6.88;;;;;;;;;;5066604;28;20123;-65
2022/04/23 00:45:14;;;;;;;15.45;7.38;;;;;;;;;;5049364;28;20189;-66
2022/04/23 00:47:40;;;;;;;12.48;7.60;;;;;;;;;;5048897;28;20113;-67
2022/04/23 00:50:06;;;;;;;15.82;6.90;;;;;;;;;;5046256;28;20388;-66
2022/04/23 00:52:33;;;;;;;14.25;7.25;;;;;;;;;;5032292;28;20071;-66
2022/04/23 00:54:59;;;;;;;17.98;7.47;;;;;;;;;;5049536;28;20041;-66
2022/04/23 00:57:26;;;;;;;14.73;7.32;;;;;;;;;;5048012;28;20053;-66
2022/04/23 00:59:52;;;;;;;15.85;7.38;;;;;;;;;;5065363;28;20496;-66
2022/04/23 01:02:22;;;;;;;12.73;7.53;;;;;;;;;;5062827;28;20380;-67
2022/04/23 01:04:48;;;;;;;15.40;7.70;;;;;;;;;;5064568;28;20463;-66
2022/04/23 01:07:15;;;;;;;11.73;7.50;;;;;;;;;;5047783;28;20400;-66
2022/04/23 01:09:44;;;;;;;16.27;9.23;;;;;;;;;;5047830;28;20041;-66
2022/04/23 01:12:11;;;;;;;15.50;7.93;;;;;;;;;;5065459;28;20068;-66
2022/04/23 01:15:11;;;;;;;14.77;8.15;;;;;;;;;;5067048;28;20115;-66
2022/04/23 01:17:38;;;;;;;14.10;8.45;;;;;;;;;;5061235;28;20048;-66
2022/04/23 01:20:05;;;;;;;15.52;8.75;;;;;;;;;;5043958;28;20051;-66
2022/04/23 01:22:31;;;;;;;14.70;9.00;;;;;;;;;;5057361;28;20043;-66
2022/04/23 01:24:58;;;;;;;18.48;8.13;;;;;;;;;;5061711;28;20051;-66
2022/04/23 01:27:25;;;;;;;12.55;8.23;;;;;;;;;;5063095;28;20134;-66
2022/04/23 01:29:52;;;;;;;15.13;9.48;;;;;;;;;;5063357;28;20049;-66
2022/04/23 01:32:18;;;;;;;18.90;10.18;;;;;;;;;;5064815;28;20035;-66
2022/04/23 01:34:44;;;;;;;14.95;9.15;;;;;;;;;;5054769;28;20044;-66
2022/04/23 01:37:10;;;;;;;18.02;9.57;;;;;;;;;;5064481;28;20329;-67
2022/04/23 01:39:36;;;;;;;14.75;9.52;;;;;;;;;;5065686;28;20048;-66
2022/04/23 01:42:03;;;;;;;17.85;10.43;;;;;;;;;;5049298;28;20048;-66
2022/04/23 01:44:29;;;;;;;13.48;9.07;;;;;;;;;;5060793;28;20365;-66
2022/04/23 01:46:55;;;;;;;19.10;9.80;;;;;;;;;;5060194;28;20048;-66
2022/04/23 01:49:21;;;;;;;18.63;10.05;;;;;;;;;;5045613;28;20060;-66
2022/04/23 01:51:48;;;;;;;17.35;10.70;;;;;;;;;;5060294;28;20174;-66
2022/04/23 01:54:14;;;;;;;16.33;9.77;;;;;;;;;;5043579;28;20123;-66
2022/04/23 01:56:40;;;;;;;18.27;9.98;;;;;;;;;;5059977;28;20049;-66
2022/04/23 01:59:06;;;;;;;15.93;10.45;;;;;;;;;;5064823;28;20102;-66
2022/04/23 02:01:32;;;;;;;20.67;10.48;;;;;;;;;;5041282;28;20063;-66
2022/04/23 02:03:59;;;;;;;17.20;10.50;;;;;;;;;;5044508;28;20060;-66
2022/04/23 02:06:25;;;;;;;17.85;10.32;;;;;;;;;;5041087;28;20048;-66
2022/04/23 02:08:51;;;;;;;15.80;11.25;;;;;;;;;;5047504;28;20139;-66
2022/04/23 02:11:17;;;;;;;16.75;11.23;;;;;;;;;;5062463;28;20033;-66
2022/04/23 02:13:45;;;;;;;19.08;10.68;;;;;;;;;;5062884;28;20044;-66
2022/04/23 02:16:11;;;;;;;15.93;10.98;;;;;;;;;;5063706;28;20532;-66
2022/04/23 02:18:39;;;;;;;19.77;10.90;;;;;;;;;;5045098;28;20041;-66
2022/04/23 02:21:05;;;;;;;16.33;10.25;;;;;;;;;;5047116;28;20051;-66
2022/04/23 02:23:32;;;;;;;17.02;10.35;;;;;;;;;;5043540;28;20048;-66
2022/04/23 02:25:58;;;;;;;17.15;10.40;;;;;;;;;;5061351;28;20389;-66
2022/04/23 02:28:24;;;;;;;19.77;11.98;;;;;;;;;;5061751;28;20606;-66
2022/04/23 02:30:51;;;;;;;17.92;11.60;;;;;;;;;;5060851;28;20036;-66
2022/04/23 02:33:17;;;;;;;17.73;11.35;;;;;;;;;;5058526;28;20079;-66
2022/04/23 02:35:44;;;;;;;18.13;11.02;;;;;;;;;;5043269;28;20477;-66
2022/04/23 02:38:10;;;;;;;21.77;10.73;;;;;;;;;;5063182;28;20408;-66
2022/04/23 02:40:38;;;;;;;17.30;11.25;;;;;;;;;;5047166;28;20072;-66
2022/04/23 02:43:05;;;;;;;21.90;11.77;;;;;;;;;;5063642;28;20079;-66
2022/04/23 02:45:32;;;;;;;17.20;12.07;;;;;;;;;;5047696;28;20438;-66
2022/04/23 02:47:58;;;;;;;18.65;12.32;;;;;;;;;;5063895;28;20040;-66
2022/04/23 02:50:26;;;;;;;16.17;11.40;;;;;;;;;;5063289;28;20404;-66
2022/04/23 02:52:52;;;;;;;15.45;10.88;;;;;;;;;;5047873;28;20138;-66
2022/04/23 02:55:19;;;;;;;19.73;12.10;;;;;;;;;;5064102;28;20476;-66
2022/04/23 02:57:45;;;;;;;16.98;10.77;;;;;;;;;;5050280;28;20052;-66
2022/04/23 03:00:11;;;;;;;17.38;11.60;;;;;;;;;;5063654;28;20036;-66
2022/04/23 03:02:38;;;;;;;17.77;12.23;;;;;;;;;;5062406;28;20048;-66
2022/04/23 03:05:05;;;;;;;20.33;12.45;;;;;;;;;;5064085;28;20040;-66
2022/04/23 03:07:32;;;;;;;21.77;12.13;;;;;;;;;;5060621;28;20045;-66
2022/04/23 03:09:59;;;;;;;16.38;12.13;;;;;;;;;;5064165;28;20126;-66
2022/04/23 03:12:25;;;;;;;19.98;12.20;;;;;;;;;;5064266;28;20597;-66
2022/04/23 03:14:51;;;;;;;19.23;12.40;;;;;;;;;;5062685;28;20159;-66
2022/04/23 03:17:17;;;;;;;19.23;13.10;;;;;;;;;;5052284;28;20063;-66
2022/04/23 03:19:44;;;;;;;19.52;12.43;;;;;;;;;;5049761;28;20043;-66
2022/04/23 03:22:10;;;;;;;18.52;11.50;;;;;;;;;;5046822;28;20057;-66
2022/04/23 03:24:37;;;;;;;18.65;12.35;;;;;;;;;;5067574;28;20087;-66
2022/04/23 03:27:03;;;;;;;21.75;12.13;;;;;;;;;;5059965;28;20480;-66
2022/04/23 03:29:29;;;;;;;18.60;12.10;;;;;;;;;;5047768;28;20044;-66
2022/04/23 03:31:55;;;;;;;20.00;11.88;;;;;;;;;;5048979;28;20488;-66
2022/04/23 03:34:21;;;;;;;21.67;13.45;;;;;;;;;;5066194;28;20058;-66
2022/04/23 03:36:48;;;;;;;17.02;11.57;;;;;;;;;;5061761;28;20076;-66
2022/04/23 03:39:15;;;;;;;17.63;11.73;;;;;;;;;;5066737;28;20041;-66
2022/04/23 03:41:41;;;;;;;20.70;12.93;;;;;;;;;;5047319;28;21432;-66
2022/04/23 03:44:07;;;;;;;19.35;12.10;;;;;;;;;;5050948;28;20395;-66
2022/04/23 03:46:34;;;;;;;16.48;11.52;;;;;;;;;;5066371;28;20067;-66
2022/04/23 03:49:00;;;;;;;18.25;11.60;;;;;;;;;;5066488;28;20115;-66
2022/04/23 03:51:26;;;;;;;18.20;12.43;;;;;;;;;;5051521;28;20416;-66
2022/04/23 03:53:52;;;;;;;19.23;12.02;;;;;;;;;;5066677;28;20052;-66
2022/04/23 03:56:18;;;;;;;18.58;11.98;;;;;;;;;;5065612;28;20044;-66
2022/04/23 03:58:45;;;;;;;19.67;11.93;;;;;;;;;;5064259;28;20048;-66
2022/04/23 04:01:11;;;;;;;16.63;11.27;;;;;;;;;;5067952;28;20491;-66
2022/04/23 04:03:37;;;;;;;22.35;11.85;;;;;;;;;;5066912;28;20049;-66
2022/04/23 04:06:03;;;;;;;21.30;12.27;;;;;;;;;;5051171;28;20300;-66
2022/04/23 04:08:30;;;;;;;19.58;12.18;;;;;;;;;;5047940;28;20052;-66
2022/04/23 04:10:56;;;;;;;19.65;11.80;;;;;;;;;;5052053;28;20437;-66
2022/04/23 04:13:23;;;;;;;17.77;11.02;;;;;;;;;;5048818;28;20478;-66
2022/04/23 04:15:50;;;;;;;17.08;11.27;;;;;;;;;;5066159;28;20041;-66
2022/04/23 04:18:16;;;;;;;18.73;11.32;;;;;;;;;;5066132;28;20598;-66
2022/04/23 04:20:44;;;;;;;17.92;11.70;;;;;;;;;;5064078;28;20135;-66
2022/04/23 04:23:10;;;;;;;17.42;11.60;;;;;;;;;;5064957;28;20052;-66
2022/04/23 04:25:36;;;;;;;18.92;11.48;;;;;;;;;;5063014;28;20080;-66
2022/04/23 04:28:03;;;;;;;17.23;11.88;;;;;;;;;;5048123;28;20417;-66
2022/04/23 04:31:46;;;;;;;18.13;11.82;;;;;;;;;;5047741;28;20041;-66
2022/04/23 04:33:15;;;;;;;17.48;11.18;;;;;;;;;;5044538;28;20123;-66
2022/04/23 04:35:41;;;;;;;18.25;12.15;;;;;;;;;;5066419;28;20403;-66
2022/04/23 04:38:08;;;;;;;18.58;11.80;;;;;;;;;;5041689;28;20484;-66
2022/04/23 04:40:34;;;;;;;16.42;11.23;;;;;;;;;;5046708;28;20088;-66
2022/04/23 04:43:00;;;;;;;16.83;11.40;;;;;;;;;;5060630;28;20121;-66
2022/04/23 04:45:26;;;;;;;16.38;11.32;;;;;;;;;;5043126;28;20083;-66
2022/04/23 04:47:52;;;;;;;16.05;11.43;;;;;;;;;;5064679;28;20344;-66
2022/04/23 04:50:18;;;;;;;21.15;12.23;;;;;;;;;;5047657;28;20036;-66
2022/04/23 04:52:45;;;;;;;22.50;12.45;;;;;;;;;;5045886;28;20127;-66
2022/04/23 04:55:11;;;;;;;16.88;11.52;;;;;;;;;;5065491;28;20043;-66
2022/04/23 04:57:37;;;;;;;16.40;10.75;;;;;;;;;;5063414;28;20036;-66
2022/04/23 05:00:04;;;;;;;19.17;12.30;;;;;;;;;;5052922;28;20123;-66
2022/04/23 05:02:30;;;;;;;14.43;11.23;;;;;;;;;;5063648;28;20139;-66
2022/04/23 05:04:56;;;;;;;18.25;11.93;;;;;;;;;;5062547;28;20044;-66
2022/04/23 05:07:22;;;;;;;15.32;11.52;;;;;;;;;;5063447;28;20419;-66
2022/04/23 05:09:48;;;;;;;17.05;11.88;;;;;;;;;;5063670;28;20051;-66
2022/04/23 05:12:15;;;;;;;16.08;11.90;;;;;;;;;;5062104;28;20048;-66
2022/04/23 05:14:41;;;;;;;15.80;12.38;;;;;;;;;;5064313;28;20032;-65
2022/04/23 05:17:07;;;;;;;17.23;11.95;;;;;;;;;;5064662;28;20048;-66
2022/04/23 05:19:33;;;;;;;19.52;12.80;;;;;;;;;;5065548;28;20466;-66
2022/04/23 05:21:59;;;;;;;19.15;11.38;;;;;;;;;;5063432;28;20059;-66
2022/04/23 05:24:25;;;;;;;17.27;11.32;;;;;;;;;;5047007;28;20123;-66
2022/04/23 05:26:52;;;;;;;18.08;11.65;;;;;;;;;;5063079;28;20037;-66
2022/04/23 05:29:18;;;;;;;17.95;12.07;;;;;;;;;;5046888;28;20044;-66
2022/04/23 05:31:44;;;;;;;18.42;11.90;;;;;;;;;;5066026;28;20709;-66
2022/04/23 05:34:10;;;;;;;14.23;10.68;;;;;;;;;;5063917;28;20488;-66
2022/04/23 05:36:36;;;;;;;15.98;11.13;;;;;;;;;;5065610;28;20044;-66
2022/04/23 05:39:02;;;;;;;14.48;10.95;;;;;;;;;;5063940;28;20633;-66
2022/04/23 05:41:29;;;;;;;17.42;12.80;;;;;;;;;;5047826;28;20078;-66
2022/04/23 05:43:55;;;;;;;16.05;11.18;;;;;;;;;;5064232;28;20506;-66
2022/04/23 05:46:21;;;;;;;16.85;11.77;;;;;;;;;;5065339;28;20389;-66
2022/04/23 05:48:47;;;;;;;17.13;11.45;;;;;;;;;;5064624;28;20430;-66
2022/04/23 05:51:13;;;;;;;17.40;10.82;;;;;;;;;;5064124;28;20048;-66
2022/04/23 05:53:39;;;;;;;16.33;10.77;;;;;;;;;;5060709;28;20036;-66
2022/04/23 05:56:06;;;;;;;15.07;10.85;;;;;;;;;;5062709;28;20507;-66
2022/04/23 05:58:34;;;;;;;15.25;10.40;;;;;;;;;;5066476;28;20055;-66
2022/04/23 06:01:00;;;;;;;17.38;11.43;;;;;;;;;;5063866;28;20044;-66
2022/04/23 06:03:26;;;;;;;14.65;10.93;;;;;;;;;;5061225;28;20052;-66
2022/04/23 06:05:52;;;;;;;13.85;10.63;;;;;;;;;;5045714;28;20563;-65
2022/04/23 06:08:18;;;;;;;17.20;11.43;;;;;;;;;;5063608;28;20040;-65
2022/04/23 06:10:44;;;;;;;14.52;11.23;;;;;;;;;;5061481;28;20041;-65
2022/04/23 06:13:11;;;;;;;15.57;10.60;;;;;;;;;;5061905;28;20048;-66
2022/04/23 06:15:37;;;;;;;13.65;9.98;;;;;;;;;;5047095;28;20047;-65
2022/04/23 06:18:03;;;;;;;17.63;10.85;;;;;;;;;;5044701;28;20388;-66
2022/04/23 06:20:30;;;;;;;14.82;10.65;;;;;;;;;;5063288;28;20500;-65
2022/04/23 06:22:56;;;;;;;13.93;11.30;;;;;;;;;;5063294;28;20102;-66
2022/04/23 06:25:22;;;;;;;13.30;10.30;;;;;;;;;;5058019;28;20128;-66
2022/04/23 06:27:50;;;;;;;14.70;9.50;;;;;;;;;;5061706;28;20052;-66
2022/04/23 06:30:16;;;;;;;13.30;11.02;;;;;;;;;;5063268;28;20120;-65
2022/04/23 06:32:42;;;;;;;14.13;11.18;;;;;;;;;;5063211;28;20055;-65
2022/04/23 06:35:09;;;;;;;13.77;10.20;;;;;;;;;;5064100;28;20032;-65
2022/04/23 06:37:40;;;;;;;14.38;10.68;;;;;;;;;;5063673;28;20139;-65
2022/04/23 06:40:07;;;;;;;13.82;10.15;;;;;;;;;;5047377;28;20052;-65
2022/04/23 06:42:33;;;;;;;13.73;10.75;;;;;;;;;;5044693;28;20040;-66
2022/04/23 06:45:00;;;;;;;16.38;11.23;;;;;;;;;;5054475;28;20040;-66
2022/04/23 06:47:26;;;;;;;14.35;10.75;;;;;;;;;;5051650;28;20052;-66
2022/04/23 06:49:53;;;;;;;14.45;10.65;;;;;;;;;;5054936;28;20090;-66
2022/04/23 06:52:19;;;;;;;16.63;10.55;;;;;;;;;;5041355;28;20285;-66
2022/04/23 06:54:45;;;;;;;13.00;10.80;;;;;;;;;;5058982;28;20036;-66
2022/04/23 06:57:11;;;;;;;11.73;9.82;;;;;;;;;;5057980;28;20477;-66
2022/04/23 06:59:37;;;;;;;15.90;10.50;;;;;;;;;;5055750;28;20499;-66
2022/04/23 07:02:04;;;;;;;15.95;10.40;;;;;;;;;;5056405;28;20480;-66
2022/04/23 07:04:30;;;;;;;14.40;10.02;;;;;;;;;;5039405;28;20403;-66
2022/04/23 07:06:57;;;;;;;16.10;10.30;;;;;;;;;;5055154;28;20041;-66
2022/04/23 07:09:23;;;;;;;13.10;10.45;;;;;;;;;;5062367;28;20036;-66
2022/04/23 07:11:49;;;;;;;15.27;9.85;;;;;;;;;;5051387;28;20098;-66
2022/04/23 07:14:15;;;;;;;18.05;10.70;;;;;;;;;;5052926;28;20044;-66
2022/04/23 07:16:42;;;;;;;13.77;10.45;;;;;;;;;;5035937;28;20052;-66
2022/04/23 07:19:11;;;;;;;14.43;10.13;;;;;;;;;;5052708;28;20048;-66
2022/04/23 07:21:37;;;;;;;14.32;10.23;;;;;;;;;;5076562;28;20793;-66
2022/04/23 07:24:04;;;;;;;18.27;10.13;;;;;;;;;;5058668;28;20052;-66
2022/04/23 07:26:31;;;;;;;13.77;10.18;;;;;;;;;;5076922;28;20400;-66
2022/04/23 07:28:58;;;;;;;18.63;10.77;;;;;;;;;;5056366;28;20045;-66
2022/04/23 07:31:25;;;;;;;15.68;10.43;;;;;;;;;;5077643;28;20071;-66
2022/04/23 07:39:21;;;;;;;14.90;10.40;;;;;;;;;;5077196;28;20056;-66
2022/04/23 07:41:47;;;;;;;16.65;10.70;;;;;;;;;;5055411;28;20504;-66
2022/04/23 07:44:14;;;;;;;14.52;11.27;;;;;;;;;;5077277;28;20039;-66
2022/04/23 07:46:40;;;;;;;15.95;10.50;;;;;;;;;;5057868;28;20048;-65
2022/04/23 07:49:06;;;;;;;17.10;9.68;;;;;;;;;;5076541;28;20135;-64
2022/04/23 07:51:33;;;;;;;14.45;10.65;;;;;;;;;;5076969;28;20063;-65
2022/04/23 07:53:59;;;;;;;16.48;10.30;;;;;;;;;;5077035;28;20047;-64
2022/04/23 07:56:25;;;;;;;16.52;10.05;;;;;;;;;;5058648;28;20365;-65
2022/04/23 07:58:52;;;;;;;14.07;10.43;;;;;;;;;;5076891;28;20040;-65
2022/04/23 08:01:18;;;;;;;17.67;10.27;;;;;;;;;;5076897;28;20124;-64
2022/04/23 08:03:44;;;;;;;14.90;8.88;;;;;;;;;;5071578;28;20102;-65
2022/04/23 08:06:11;;;;;;;10.52;9.18;;;;;;;;;;5073496;28;20052;-65
2022/04/23 08:08:37;;;;;;;16.77;9.05;;;;;;;;;;5073641;28;20044;-65
2022/04/23 08:11:04;;;;;;;11.70;8.63;;;;;;;;;;5073360;28;20094;-65
2022/04/23 08:13:30;;;;;;;12.90;10.00;;;;;;;;;;5044671;28;20500;-64
2022/04/23 08:15:59;;;;;;;11.93;9.55;;;;;;;;;;5072731;28;20044;-64
2022/04/23 08:18:25;;;;;;;14.73;9.23;;;;;;;;;;5073359;28;20045;-64
2022/04/23 08:20:51;;;;;;;13.23;8.95;;;;;;;;;;5073220;28;20091;-64
2022/04/23 08:23:19;;;;;;;16.42;9.20;;;;;;;;;;5073157;28;20166;-65
2022/04/23 08:25:46;;;;;;;14.32;9.38;;;;;;;;;;5072980;28;20036;-65
2022/04/23 08:30:57;;;;;;;18.75;9.38;;;;;;;;;;5047740;28;20052;-65
2022/04/23 08:33:57;;;;;;;13.52;9.43;;;;;;;;;;5072987;28;20131;-65
2022/04/23 08:36:10;;;;;;;13.20;9.13;;;;;;;;;;5072549;28;20048;-64
2022/04/23 08:38:37;;;;;;;13.07;8.40;;;;;;;;;;5072660;28;20048;-65
2022/04/23 08:41:04;;;;;;;17.27;9.57;;;;;;;;;;5069051;28;20041;-65
2022/04/23 08:43:30;;;;;;;17.90;8.88;;;;;;;;;;5055295;28;20063;-65
2022/04/23 08:45:56;;;;;;;19.88;9.98;;;;;;;;;;5051485;28;20048;-65
2022/04/23 08:48:24;;;;;;;13.20;9.00;;;;;;;;;;5067726;28;20071;-65
2022/04/23 08:50:51;;;;;;;15.80;8.82;;;;;;;;;;5049432;28;20441;-65
2022/04/23 08:53:18;;;;;;;16.17;9.50;;;;;;;;;;5061460;28;20128;-65
2022/04/23 08:55:46;;;;;;;20.52;10.18;;;;;;;;;;5045739;28;20057;-66
2022/04/23 08:58:14;;;;;;;19.65;8.90;;;;;;;;;;5049956;28;21666;-64
2022/04/23 09:00:41;;;;;;;13.85;8.20;;;;;;;;;;5047659;28;20033;-65
2022/04/23 09:03:13;;;;;;;11.43;7.93;;;;;;;;;;5063216;28;20342;-64
2022/04/23 09:05:40;;;;;;;11.85;8.80;;;;;;;;;;5057559;28;20493;-64
2022/04/23 09:08:07;;;;;;;14.40;8.90;;;;;;;;;;5059678;28;20045;-65
2022/04/23 09:10:54;;;;;;;13.30;8.35;;;;;;;;;;5044913;28;20487;-65
2022/04/23 09:13:28;;;;;;;14.90;8.98;;;;;;;;;;5061048;28;20119;-65
2022/04/23 09:24:16;;;;;;;13.20;8.88;;;;;;;;;;5060870;28;20047;-65
2022/04/23 09:26:42;;;;;;;12.98;8.25;;;;;;;;;;5046802;28;20072;-65
2022/04/23 09:29:14;;;;;;;14.57;8.80;;;;;;;;;;5063099;28;20059;-65
2022/04/23 09:31:41;;;;;;;12.45;8.85;;;;;;;;;;5059783;28;20086;-64
2022/04/23 09:34:15;;;;;;;12.88;8.50;;;;;;;;;;5059889;28;20083;-65
2022/04/23 09:36:49;;;;;;;12.25;9.10;;;;;;;;;;5058249;28;20052;-65
2022/04/23 09:39:28;;;;;;;11.30;9.25;;;;;;;;;;5059765;28;20061;-64
2022/04/23 09:42:10;;;;;;;10.40;8.13;;;;;;;;;;5057888;28;20140;-64
2022/04/23 09:44:36;;;;;;;10.88;8.90;;;;;;;;;;5049134;28;20219;-65
2022/04/23 09:47:02;;;;;;;12.75;8.77;;;;;;;;;;5046372;28;20076;-66
2022/04/23 09:49:29;;;;;;;10.88;8.90;;;;;;;;;;5066746;28;20036;-65
2022/04/23 09:52:00;;;;;;;10.40;8.80;;;;;;;;;;5067482;28;20041;-65
2022/04/23 09:54:28;;;;;;;9.68;8.68;;;;;;;;;;5050036;28;20076;-66
2022/04/23 09:56:54;;;;;;;13.32;8.48;;;;;;;;;;5047059;28;20085;-66
2022/04/23 09:59:20;;;;;;;11.73;9.10;;;;;;;;;;5066184;28;20056;-65
2022/04/23 10:01:48;;;;;;;13.27;8.73;;;;;;;;;;5043338;28;20045;-66
2022/04/23 10:04:17;;;;;;;13.25;8.38;;;;;;;;;;5067810;28;20036;-64
2022/04/23 10:06:45;;;;;;;12.68;8.05;;;;;;;;;;5068196;28;20081;-64
2022/04/23 10:09:12;;;;;;;17.02;8.07;;;;;;;;;;5064351;28;20071;-64
2022/04/23 10:11:42;;;;;;;14.70;8.10;;;;;;;;;;5049069;28;20043;-64
2022/04/23 10:14:13;;;;;;;12.40;8.38;;;;;;;;;;5049613;28;20076;-64
2022/04/23 10:16:40;;;;;;;15.05;8.55;;;;;;;;;;5065566;28;20141;-64
2022/04/23 10:19:07;;;;;;;10.07;8.55;;;;;;;;;;5065539;28;20051;-64
2022/04/23 10:21:42;;;;;;;19.55;9.35;;;;;;;;;;5047036;28;20145;-64
2022/04/23 10:24:13;;;;;;;9.75;8.25;;;;;;;;;;5064932;28;20039;-64
2022/04/23 10:26:54;;;;;;;10.07;8.50;;;;;;;;;;5067100;28;20055;-64
2022/04/23 10:29:21;;;;;;;9.82;8.75;;;;;;;;;;5066340;28;20089;-64
2022/04/23 10:32:06;;;;;;;12.18;8.38;;;;;;;;;;5067293;28;20174;-64
2022/04/23 10:34:33;;;;;;;13.35;8.60;;;;;;;;;;5066155;28;20046;-64
2022/04/23 10:37:14;;;;;;;11.15;8.25;;;;;;;;;;5066411;28;20124;-64
2022/04/23 10:39:42;;;;;;;13.40;8.80;;;;;;;;;;5064018;28;20048;-65
2022/04/23 10:42:15;;;;;;;11.40;8.02;;;;;;;;;;5063847;28;20044;-64
2022/04/23 10:44:42;;;;;;;10.18;8.70;;;;;;;;;;5066769;28;20044;-65
2022/04/23 10:47:13;;;;;;;10.52;7.78;;;;;;;;;;5064669;28;20051;-65
2022/04/23 10:49:39;;;;;;;14.85;7.82;;;;;;;;;;5048350;28;20041;-65
2022/04/23 10:52:05;;;;;;;11.20;7.70;;;;;;;;;;5041254;28;20041;-64
2022/04/23 10:54:52;;;;;;;11.10;7.45;;;;;;;;;;5038995;28;20142;-64
2022/04/23 10:57:18;;;;;;;12.25;6.35;;;;;;;;;;5064371;28;20032;-64
2022/04/23 10:59:45;;;;;;;8.65;6.60;;;;;;;;;;5066046;28;20112;-64
2022/04/23 11:02:13;;;;;;;13.25;7.55;;;;;;;;;;5066051;28;20334;-64
2022/04/23 11:13:23;;;;;;;12.35;7.68;;;;;;;;;;5065648;28;20048;-64
2022/04/23 11:16:06;;;;;;;13.68;7.13;;;;;;;;;;5066285;28;20044;-64
2022/04/23 11:18:33;;;;;;;9.75;7.28;;;;;;;;;;5067600;28;20461;-64
2022/04/23 11:21:18;;;;;;;10.73;7.75;;;;;;;;;;5064877;28;20101;-64
2022/04/23 11:23:45;;;;;;;9.98;7.35;;;;;;;;;;5066966;28;20779;-65
2022/04/23 11:26:13;;;;;;;9.90;6.88;;;;;;;;;;5047952;28;20048;-64
2022/04/23 11:28:40;;;;;;;8.90;7.03;;;;;;;;;;5044185;28;20048;-64
2022/04/23 11:31:11;;;;;;;8.82;7.30;;;;;;;;;;5046613;28;20485;-64
2022/04/23 11:33:37;;;;;;;13.55;6.72;;;;;;;;;;5062188;28;20041;-64
2022/04/23 11:36:04;;;;;;;8.65;6.78;;;;;;;;;;5045677;28;20032;-64
2022/04/23 11:38:31;;;;;;;9.05;6.85;;;;;;;;;;5065647;28;20467;-64
2022/04/23 11:40:57;;;;;;;11.30;6.50;;;;;;;;;;5067008;28;20411;-64
2022/04/23 11:43:31;;;;;;;8.30;6.30;;;;;;;;;;5046653;28;20041;-64
2022/04/23 11:46:01;;;;;;;8.85;6.03;;;;;;;;;;5043370;28;20048;-65
2022/04/23 11:48:28;;;;;;;8.38;6.43;;;;;;;;;;5057694;28;20126;-64
2022/04/23 11:51:12;;;;;;;10.98;6.95;;;;;;;;;;5051767;28;20045;-64
2022/04/23 11:53:49;;;;;;;8.75;6.20;;;;;;;;;;5061234;28;20331;-64
2022/04/23 11:56:26;;;;;;;9.27;5.38;;;;;;;;;;5046949;28;20492;-64
2022/04/23 11:58:53;;;;;;;10.82;5.60;;;;;;;;;;5059465;28;20052;-65
2022/04/23 12:01:22;;;;;;;8.60;6.10;;;;;;;;;;5058383;28;20049;-64
2022/04/23 12:03:49;;;;;;;8.75;5.53;;;;;;;;;;5064472;28;21744;-65
2022/04/23 12:06:15;;;;;;;7.20;5.85;;;;;;;;;;5067039;28;20417;-64
2022/04/23 12:08:41;;;;;;;7.70;5.50;;;;;;;;;;5060529;28;20095;-64
2022/04/23 12:11:21;;;;;;;9.43;5.93;;;;;;;;;;5063518;28;20043;-63
2022/04/23 12:13:48;;;;;;;10.73;6.22;;;;;;;;;;5064779;28;20169;-64
2022/04/23 12:16:31;;;;;;;8.85;5.88;;;;;;;;;;5046239;28;20049;-64
2022/04/23 12:18:57;;;;;;;;;;;;;;;;;;5049414;28;20051;-64
2022/04/23 12:21:23;;;;;;;8.43;6.75;;;;;;;;;;5047617;28;19920;-64
2022/04/23 12:23:50;;;;;;;11.25;5.82;;;;;;;;;;5049777;28;20051;-64
2022/04/23 12:26:19;;;;;;;8.30;6.55;;;;;;;;;;5048498;28;20079;-64
2022/04/23 12:42:27;;;;;;;10.40;6.32;;;;;;;;;;5066674;28;20123;-64
2022/04/23 12:44:53;;;;;;;8.35;5.75;;;;;;;;;;5065655;28;20107;-64
2022/04/23 12:47:33;;;;;;;16.45;5.88;;;;;;;;;;5065098;28;20067;-64
2022/04/23 12:50:02;;;;;;;9.95;5.93;;;;;;;;;;5060672;28;20059;-64
2022/04/23 12:52:32;;;;;;;7.93;5.40;;;;;;;;;;5064660;28;20074;-64
2022/04/23 12:55:18;;;;;;;7.93;5.65;;;;;;;;;;5062934;28;20037;-64
2022/04/23 12:57:45;;;;;;;7.68;5.60;;;;;;;;;;5051442;28;20555;-64
2022/04/23 13:00:12;;;;;;;8.70;5.47;;;;;;;;;;5067640;28;20112;-65
2022/04/23 13:02:39;;;;;;;9.50;5.60;;;;;;;;;;5050170;28;20460;-64
2022/04/23 13:05:07;;;;;;;9.38;5.25;;;;;;;;;;5067144;28;20103;-64
2022/04/23 13:10:18;;;;;;;8.57;5.47;;;;;;;;;;5067222;28;20513;-64
2022/04/23 13:12:45;;;;;;;7.85;5.00;;;;;;;;;;5067547;28;20040;-65
2022/04/23 13:15:11;;;;;;;11.07;5.78;;;;;;;;;;5068803;28;20056;-64
2022/04/23 13:17:38;;;;;;;6.57;5.43;;;;;;;;;;5069314;28;20119;-64
2022/04/23 13:20:06;;;;;;;9.20;5.60;;;;;;;;;;5049742;28;20381;-64
2022/04/23 13:22:33;;;;;;;11.38;5.40;;;;;;;;;;5067210;28;20043;-64
2022/04/23 13:24:59;;;;;;;9.73;5.60;;;;;;;;;;5066959;28;20036;-64
2022/04/23 13:27:25;;;;;;;11.75;5.63;;;;;;;;;;5065702;28;20538;-64
2022/04/23 13:29:52;;;;;;;9.13;5.60;;;;;;;;;;5067838;28;20090;-64
2022/04/23 13:32:19;;;;;;;5.70;4.50;;;;;;;;;;5064449;28;20055;-64
2022/04/23 13:34:45;;;;;;;8.88;5.65;;;;;;;;;;5066833;28;20045;-64
2022/04/23 13:37:11;;;;;;;11.23;6.65;;;;;;;;;;5067451;28;20052;-64
2022/04/23 13:39:38;;;;;;;6.10;5.05;;;;;;;;;;5050202;28;20047;-63
2022/04/23 13:42:04;;;;;;;6.68;4.63;;;;;;;;;;5049189;28;20044;-64
2022/04/23 13:44:31;;;;;;;6.90;4.47;;;;;;;;;;5066754;28;20090;-64
2022/04/23 13:46:57;;;;;;;7.85;5.00;;;;;;;;;;5042287;28;20049;-64
2022/04/23 13:49:23;;;;;;;5.65;4.25;;;;;;;;;;5067102;28;20262;-64
2022/04/23 13:51:50;;;;;;;11.73;4.47;;;;;;;;;;5066020;28;20110;-64
2022/04/23 13:54:16;;;;;;;6.22;4.60;;;;;;;;;;5066332;28;20119;-65
2022/04/23 13:56:43;;;;;;;13.00;5.05;;;;;;;;;;5065770;28;20403;-64
2022/04/23 13:59:10;;;;;;;6.30;4.40;;;;;;;;;;5066347;28;20052;-64
2022/04/23 14:01:37;;;;;;;6.63;4.47;;;;;;;;;;5066066;28;20132;-64
2022/04/23 14:12:17;;;;;;;5.88;4.40;;;;;;;;;;5067447;28;20400;-64
2022/04/23 14:14:44;;;;;;;5.57;4.57;;;;;;;;;;5062974;28;20064;-64
2022/04/23 14:17:10;;;;;;;7.88;4.78;;;;;;;;;;5066712;28;20101;-64
2022/04/23 14:19:36;;;;;;;5.07;3.90;;;;;;;;;;5065397;28;20036;-64
2022/04/23 14:22:03;;;;;;;7.63;4.18;;;;;;;;;;5066615;28;20029;-64
2022/04/23 14:24:31;;;;;;;5.97;4.40;;;;;;;;;;5066726;28;20071;-64
2022/04/23 14:26:57;;;;;;;10.25;4.43;;;;;;;;;;5050943;28;20040;-64
2022/04/23 14:29:24;;;;;;;5.50;4.32;;;;;;;;;;5065024;28;20534;-64
2022/04/23 14:31:50;;;;;;;7.13;4.10;;;;;;;;;;5067579;28;20047;-64
2022/04/23 14:34:16;;;;;;;5.10;4.10;;;;;;;;;;5068186;28;20040;-64
2022/04/23 14:36:42;;;;;;;7.53;3.92;;;;;;;;;;5067398;28;20514;-65
2022/04/23 14:39:08;;;;;;;7.03;3.97;;;;;;;;;;5065417;28;20415;-64
2022/04/23 14:41:34;;;;;;;14.05;3.80;;;;;;;;;;5067641;28;20178;-64
2022/04/23 14:44:01;;;;;;;5.63;3.78;;;;;;;;;;5045232;28;20053;-64
2022/04/23 14:46:28;;;;;;;9.95;3.83;;;;;;;;;;5067579;28;20044;-64
2022/04/23 14:48:54;;;;;;;7.57;3.92;;;;;;;;;;5067044;28;20448;-64
2022/04/23 14:54:06;;;;;;;6.63;3.13;;;;;;;;;;5064701;28;20495;-64
2022/04/23 14:56:33;;;;;;;12.07;3.42;;;;;;;;;;5045069;28;20437;-64
2022/04/23 14:59:00;;;;;;;8.13;3.83;;;;;;;;;;5043440;28;20040;-64
2022/04/23 15:01:27;;;;;;;7.43;3.47;;;;;;;;;;5067525;28;20044;-64
2022/04/23 15:03:53;;;;;;;6.68;3.95;;;;;;;;;;5046507;28;20068;-64
2022/04/23 15:06:21;;;;;;;6.60;3.20;;;;;;;;;;5063314;28;20042;-64
2022/04/23 15:08:47;;;;;;;7.00;3.95;;;;;;;;;;5065643;28;20404;-65
2022/04/23 15:11:14;;;;;;;7.88;3.40;;;;;;;;;;5046218;28;20039;-65
2022/04/23 15:13:41;;;;;;;6.70;3.13;;;;;;;;;;5053297;28;20056;-64
2022/04/23 15:16:07;;;;;;;6.78;3.47;;;;;;;;;;5071546;28;20044;-65
2022/04/23 15:18:33;;;;;;;6.57;3.25;;;;;;;;;;5049492;28;20418;-65
2022/04/23 15:20:59;;;;;;;5.50;3.40;;;;;;;;;;5052790;28;20112;-65
2022/04/23 15:23:25;;;;;;;7.72;3.22;;;;;;;;;;5048970;28;20824;-65